sensor_id;sensor_type;location;lat;lon;timestamp;temperature;humidity
12421;DHT22;6275;43.688;1.408;2022-12-29T00:02:00;11.40;99.90
12421;DHT22;6275;43.688;1.408;2022-12-29T00:04:27;11.30;99.90
12421;DHT22;6275;43.688;1.408;2022-12-29T00:06:54;11.30;99.90
12421;DHT22;6275;43.688;1.408;2022-12-29T00:09:21;11.30;99.90
12421;DHT22;6275;43.688;1.408;2022-12-29T00:11:48;11.40;99.90
12421;DHT22;6275;43.688;1.408;2022-12-29T00:14:16;11.40;99.90
12421;DHT22;6275;43.688;1.408;2022-12-29T00:17:03;11.30;99.90
12421;DHT22;6275;43.688;1.408;2022-12-29T00:19:30;11.30;99.90
12421;DHT22;6275;43.688;1.408;2022-12-29T00:22:15;11.30;99.90
12421;DHT22;6275;43.688;1.408;2022-12-29T00:25:01;11.30;99.90
12421;DHT22;6275;43.688;1.408;2022-12-29T00:27:29;11.40;99.90
12421;DHT22;6275;43.688;1.408;2022-12-29T00:30:17;11.40;99.90
12421;DHT22;6275;43.688;1.408;2022-12-29T00:33:14;11.40;99.90
12421;DHT22;6275;43.688;1.408;2022-12-29T00:36:08;11.40;99.90
12421;DHT22;6275;43.688;1.408;2022-12-29T00:38:40;11.30;99.90
12421;DHT22;6275;43.688;1.408;2022-12-29T00:41:27;11.40;99.90
12421;DHT22;6275;43.688;1.408;2022-12-29T00:44:13;11.50;99.90
12421;DHT22;6275;43.688;1.408;2022-12-29T00:46:41;11.50;99.90
12421;DHT22;6275;43.688;1.408;2022-12-29T00:49:12;11.50;99.90
12421;DHT22;6275;43.688;1.408;2022-12-29T00:51:58;11.60;99.90
12421;DHT22;6275;43.688;1.408;2022-12-29T00:54:28;11.60;99.90
12421;DHT22;6275;43.688;1.408;2022-12-29T00:56:55;11.60;99.90
12421;DHT22;6275;43.688;1.408;2022-12-29T00:59:22;11.50;99.90
12421;DHT22;6275;43.688;1.408;2022-12-29T01:01:52;11.30;99.90
12421;DHT22;6275;43.688;1.408;2022-12-29T01:04:23;11.40;99.90
12421;DHT22;6275;43.688;1.408;2022-12-29T01:06:51;11.40;99.90
12421;DHT22;6275;43.688;1.408;2022-12-29T01:09:19;11.40;99.90
12421;DHT22;6275;43.688;1.408;2022-12-29T01:12:06;11.50;99.90
12421;DHT22;6275;43.688;1.408;2022-12-29T01:14:34;11.40;99.90
12421;DHT22;6275;43.688;1.408;2022-12-29T01:17:01;11.50;99.90
12421;DHT22;6275;43.688;1.408;2022-12-29T01:19:28;11.40;99.90
12421;DHT22;6275;43.688;1.408;2022-12-29T01:21:54;11.40;99.90
12421;DHT22;6275;43.688;1.408;2022-12-29T01:24:22;11.40;99.90
12421;DHT22;6275;43.688;1.408;2022-12-29T01:26:49;11.40;99.90
12421;DHT22;6275;43.688;1.408;2022-12-29T01:29:16;11.50;99.90
12421;DHT22;6275;43.688;1.408;2022-12-29T01:31:43;11.50;99.90
12421;DHT22;6275;43.688;1.408;2022-12-29T01:34:11;11.50;99.90
12421;DHT22;6275;43.688;1.408;2022-12-29T01:36:38;11.40;99.90
12421;DHT22;6275;43.688;1.408;2022-12-29T01:39:05;11.50;99.90
12421;DHT22;6275;43.688;1.408;2022-12-29T01:41:32;11.60;99.90
12421;DHT22;6275;43.688;1.408;2022-12-29T01:44:00;11.60;99.90
12421;DHT22;6275;43.688;1.408;2022-12-29T01:49:22;11.70;99.90
12421;DHT22;6275;43.688;1.408;2022-12-29T01:51:53;11.70;99.90
12421;DHT22;6275;43.688;1.408;2022-12-29T01:54:26;11.70;99.90
12421;DHT22;6275;43.688;1.408;2022-12-29T01:56:57;11.60;99.90
12421;DHT22;6275;43.688;1.408;2022-12-29T01:59:31;11.60;99.90
12421;DHT22;6275;43.688;1.408;2022-12-29T02:02:00;11.60;99.90
12421;DHT22;6275;43.688;1.408;2022-12-29T02:04:31;11.60;99.90
12421;DHT22;6275;43.688;1.408;2022-12-29T02:07:11;11.70;99.90
12421;DHT22;6275;43.688;1.408;2022-12-29T02:09:41;11.70;99.90
12421;DHT22;6275;43.688;1.408;2022-12-29T02:12:09;11.70;99.90
12421;DHT22;6275;43.688;1.408;2022-12-29T02:14:36;11.80;99.90
12421;DHT22;6275;43.688;1.408;2022-12-29T02:31:31;11.60;99.90
12421;DHT22;6275;43.688;1.408;2022-12-29T02:34:15;11.60;99.90
12421;DHT22;6275;43.688;1.408;2022-12-29T02:36:59;11.70;99.90
12421;DHT22;6275;43.688;1.408;2022-12-29T02:53:05;11.70;99.90
12421;DHT22;6275;43.688;1.408;2022-12-29T02:55:33;11.80;99.90
12421;DHT22;6275;43.688;1.408;2022-12-29T02:58:20;11.80;99.90
12421;DHT22;6275;43.688;1.408;2022-12-29T03:18:06;11.70;99.90
12421;DHT22;6275;43.688;1.408;2022-12-29T03:20:44;11.70;99.90
12421;DHT22;6275;43.688;1.408;2022-12-29T03:23:13;11.70;99.90
12421;DHT22;6275;43.688;1.408;2022-12-29T03:25:46;11.80;99.90
12421;DHT22;6275;43.688;1.408;2022-12-29T03:28:25;11.80;99.90
12421;DHT22;6275;43.688;1.408;2022-12-29T03:30:55;11.70;99.90
12421;DHT22;6275;43.688;1.408;2022-12-29T03:33:27;11.70;99.90
12421;DHT22;6275;43.688;1.408;2022-12-29T03:36:00;11.80;99.90
12421;DHT22;6275;43.688;1.408;2022-12-29T03:41:44;11.80;99.90
12421;DHT22;6275;43.688;1.408;2022-12-29T03:44:13;11.70;99.90
12421;DHT22;6275;43.688;1.408;2022-12-29T03:46:40;11.70;99.90
12421;DHT22;6275;43.688;1.408;2022-12-29T03:49:07;11.80;99.90
12421;DHT22;6275;43.688;1.408;2022-12-29T03:51:34;11.80;99.90
12421;DHT22;6275;43.688;1.408;2022-12-29T03:54:01;11.90;99.90
12421;DHT22;6275;43.688;1.408;2022-12-29T03:56:29;11.80;99.90
12421;DHT22;6275;43.688;1.408;2022-12-29T03:58:55;11.80;99.90
12421;DHT22;6275;43.688;1.408;2022-12-29T04:01:22;11.90;99.90
12421;DHT22;6275;43.688;1.408;2022-12-29T04:03:49;12.00;99.90
12421;DHT22;6275;43.688;1.408;2022-12-29T04:06:16;12.00;99.90
12421;DHT22;6275;43.688;1.408;2022-12-29T04:08:43;12.00;99.90
12421;DHT22;6275;43.688;1.408;2022-12-29T04:11:10;12.00;99.90
12421;DHT22;6275;43.688;1.408;2022-12-29T04:13:37;12.10;99.90
12421;DHT22;6275;43.688;1.408;2022-12-29T04:16:07;12.10;99.90
12421;DHT22;6275;43.688;1.408;2022-12-29T04:21:02;12.10;99.90
12421;DHT22;6275;43.688;1.408;2022-12-29T04:23:32;12.00;99.90
12421;DHT22;6275;43.688;1.408;2022-12-29T04:25:59;12.10;99.90
12421;DHT22;6275;43.688;1.408;2022-12-29T04:28:26;12.10;99.90
12421;DHT22;6275;43.688;1.408;2022-12-29T04:30:54;12.10;99.90
12421;DHT22;6275;43.688;1.408;2022-12-29T04:33:21;12.00;99.90
12421;DHT22;6275;43.688;1.408;2022-12-29T04:35:48;12.00;99.90
12421;DHT22;6275;43.688;1.408;2022-12-29T04:38:16;12.00;99.90
12421;DHT22;6275;43.688;1.408;2022-12-29T04:40:44;12.00;99.90
12421;DHT22;6275;43.688;1.408;2022-12-29T04:43:12;12.00;99.90
12421;DHT22;6275;43.688;1.408;2022-12-29T04:45:44;12.00;99.90
12421;DHT22;6275;43.688;1.408;2022-12-29T04:48:11;12.00;99.90
12421;DHT22;6275;43.688;1.408;2022-12-29T04:50:39;12.10;99.90
12421;DHT22;6275;43.688;1.408;2022-12-29T04:53:06;12.00;99.90
12421;DHT22;6275;43.688;1.408;2022-12-29T04:55:33;12.00;99.90
12421;DHT22;6275;43.688;1.408;2022-12-29T04:58:00;11.90;99.90
12421;DHT22;6275;43.688;1.408;2022-12-29T05:00:27;11.90;99.90
12421;DHT22;6275;43.688;1.408;2022-12-29T05:02:54;11.90;99.90
12421;DHT22;6275;43.688;1.408;2022-12-29T05:05:22;11.90;99.90
12421;DHT22;6275;43.688;1.408;2022-12-29T05:07:48;11.90;99.90
12421;DHT22;6275;43.688;1.408;2022-12-29T05:10:15;11.80;99.90
12421;DHT22;6275;43.688;1.408;2022-12-29T05:12:43;11.90;99.90
12421;DHT22;6275;43.688;1.408;2022-12-29T05:15:11;11.90;99.90
12421;DHT22;6275;43.688;1.408;2022-12-29T05:17:38;11.90;99.90
12421;DHT22;6275;43.688;1.408;2022-12-29T05:20:05;11.90;99.90
12421;DHT22;6275;43.688;1.408;2022-12-29T05:22:33;11.90;99.90
12421;DHT22;6275;43.688;1.408;2022-12-29T05:25:00;11.80;99.90
12421;DHT22;6275;43.688;1.408;2022-12-29T05:27:27;11.90;99.90
12421;DHT22;6275;43.688;1.408;2022-12-29T05:29:54;12.00;99.90
12421;DHT22;6275;43.688;1.408;2022-12-29T05:32:21;12.00;99.90
12421;DHT22;6275;43.688;1.408;2022-12-29T05:34:48;12.00;99.90
12421;DHT22;6275;43.688;1.408;2022-12-29T05:37:15;12.00;99.90
12421;DHT22;6275;43.688;1.408;2022-12-29T05:39:43;11.90;99.90
12421;DHT22;6275;43.688;1.408;2022-12-29T05:42:10;12.00;99.90
12421;DHT22;6275;43.688;1.408;2022-12-29T05:44:37;11.90;99.90
12421;DHT22;6275;43.688;1.408;2022-12-29T05:47:05;11.90;99.90
12421;DHT22;6275;43.688;1.408;2022-12-29T05:49:32;11.90;99.90
12421;DHT22;6275;43.688;1.408;2022-12-29T05:51:59;12.00;99.90
12421;DHT22;6275;43.688;1.408;2022-12-29T05:54:26;11.90;99.90
12421;DHT22;6275;43.688;1.408;2022-12-29T05:56:53;12.00;99.90
12421;DHT22;6275;43.688;1.408;2022-12-29T05:59:20;12.00;99.90
12421;DHT22;6275;43.688;1.408;2022-12-29T06:01:47;12.00;99.90
12421;DHT22;6275;43.688;1.408;2022-12-29T06:04:14;12.00;99.90
12421;DHT22;6275;43.688;1.408;2022-12-29T06:06:41;12.00;99.90
12421;DHT22;6275;43.688;1.408;2022-12-29T06:09:10;12.00;99.90
12421;DHT22;6275;43.688;1.408;2022-12-29T06:11:37;12.10;99.90
12421;DHT22;6275;43.688;1.408;2022-12-29T06:14:04;12.00;99.90
12421;DHT22;6275;43.688;1.408;2022-12-29T06:16:31;12.10;99.90
12421;DHT22;6275;43.688;1.408;2022-12-29T06:18:58;12.10;99.90
12421;DHT22;6275;43.688;1.408;2022-12-29T06:21:25;12.10;99.90
12421;DHT22;6275;43.688;1.408;2022-12-29T06:23:52;12.00;99.90
12421;DHT22;6275;43.688;1.408;2022-12-29T06:26:19;12.00;99.90
12421;DHT22;6275;43.688;1.408;2022-12-29T06:28:46;12.10;99.90
12421;DHT22;6275;43.688;1.408;2022-12-29T06:31:13;12.20;99.90
12421;DHT22;6275;43.688;1.408;2022-12-29T06:33:40;12.10;99.90
12421;DHT22;6275;43.688;1.408;2022-12-29T06:36:07;12.10;99.90
12421;DHT22;6275;43.688;1.408;2022-12-29T06:38:34;12.20;99.90
12421;DHT22;6275;43.688;1.408;2022-12-29T06:41:01;12.20;99.90
12421;DHT22;6275;43.688;1.408;2022-12-29T06:43:28;12.30;99.90
12421;DHT22;6275;43.688;1.408;2022-12-29T06:45:57;12.30;99.90
12421;DHT22;6275;43.688;1.408;2022-12-29T06:48:24;12.20;99.90
12421;DHT22;6275;43.688;1.408;2022-12-29T06:50:51;12.20;99.90
12421;DHT22;6275;43.688;1.408;2022-12-29T06:53:17;12.30;99.90
12421;DHT22;6275;43.688;1.408;2022-12-29T06:55:44;12.20;99.90
12421;DHT22;6275;43.688;1.408;2022-12-29T06:58:11;12.30;99.90
12421;DHT22;6275;43.688;1.408;2022-12-29T07:00:38;12.30;99.90
12421;DHT22;6275;43.688;1.408;2022-12-29T07:03:06;12.20;99.90
12421;DHT22;6275;43.688;1.408;2022-12-29T07:05:33;12.10;99.90
12421;DHT22;6275;43.688;1.408;2022-12-29T07:08:00;12.20;99.90
12421;DHT22;6275;43.688;1.408;2022-12-29T07:12:54;12.20;99.90
12421;DHT22;6275;43.688;1.408;2022-12-29T07:15:21;12.20;99.90
12421;DHT22;6275;43.688;1.408;2022-12-29T07:17:48;12.10;99.90
12421;DHT22;6275;43.688;1.408;2022-12-29T07:22:52;12.10;99.90
12421;DHT22;6275;43.688;1.408;2022-12-29T07:25:18;12.20;99.90
12421;DHT22;6275;43.688;1.408;2022-12-29T07:27:45;12.10;99.90
12421;DHT22;6275;43.688;1.408;2022-12-29T07:30:12;12.10;99.90
12421;DHT22;6275;43.688;1.408;2022-12-29T07:32:39;12.10;99.90
12421;DHT22;6275;43.688;1.408;2022-12-29T07:35:07;12.20;99.90
12421;DHT22;6275;43.688;1.408;2022-12-29T07:37:34;12.20;99.90
12421;DHT22;6275;43.688;1.408;2022-12-29T07:42:31;12.00;99.90
12421;DHT22;6275;43.688;1.408;2022-12-29T07:44:58;12.00;99.90
12421;DHT22;6275;43.688;1.408;2022-12-29T07:47:26;11.90;99.90
12421;DHT22;6275;43.688;1.408;2022-12-29T07:49:53;11.80;99.90
12421;DHT22;6275;43.688;1.408;2022-12-29T07:52:20;11.80;99.90
12421;DHT22;6275;43.688;1.408;2022-12-29T07:57:14;11.70;99.90
12421;DHT22;6275;43.688;1.408;2022-12-29T07:59:41;11.60;99.90
12421;DHT22;6275;43.688;1.408;2022-12-29T08:02:10;11.50;99.90
12421;DHT22;6275;43.688;1.408;2022-12-29T08:04:38;11.30;99.90
12421;DHT22;6275;43.688;1.408;2022-12-29T08:07:05;11.10;99.90
12421;DHT22;6275;43.688;1.408;2022-12-29T08:09:32;11.00;99.90
12421;DHT22;6275;43.688;1.408;2022-12-29T08:11:59;10.90;99.90
12421;DHT22;6275;43.688;1.408;2022-12-29T08:14:25;10.90;99.90
12421;DHT22;6275;43.688;1.408;2022-12-29T08:16:52;10.80;99.90
12421;DHT22;6275;43.688;1.408;2022-12-29T08:19:19;11.00;99.90
12421;DHT22;6275;43.688;1.408;2022-12-29T08:21:46;10.90;99.90
12421;DHT22;6275;43.688;1.408;2022-12-29T08:24:13;10.80;99.90
12421;DHT22;6275;43.688;1.408;2022-12-29T08:26:40;10.80;99.90
12421;DHT22;6275;43.688;1.408;2022-12-29T08:29:07;10.80;99.90
12421;DHT22;6275;43.688;1.408;2022-12-29T08:31:34;10.80;99.90
12421;DHT22;6275;43.688;1.408;2022-12-29T08:34:02;10.80;99.90
12421;DHT22;6275;43.688;1.408;2022-12-29T08:36:30;10.80;99.90
12421;DHT22;6275;43.688;1.408;2022-12-29T08:38:57;10.60;99.90
12421;DHT22;6275;43.688;1.408;2022-12-29T08:41:24;10.60;99.90
12421;DHT22;6275;43.688;1.408;2022-12-29T08:43:51;10.60;99.90
12421;DHT22;6275;43.688;1.408;2022-12-29T08:46:18;10.60;99.90
12421;DHT22;6275;43.688;1.408;2022-12-29T08:48:46;10.60;99.90
12421;DHT22;6275;43.688;1.408;2022-12-29T08:51:13;10.60;99.90
12421;DHT22;6275;43.688;1.408;2022-12-29T08:53:40;10.60;99.90
12421;DHT22;6275;43.688;1.408;2022-12-29T08:56:09;10.60;99.90
12421;DHT22;6275;43.688;1.408;2022-12-29T08:58:36;10.70;99.90
12421;DHT22;6275;43.688;1.408;2022-12-29T09:01:04;10.80;99.90
12421;DHT22;6275;43.688;1.408;2022-12-29T09:03:31;10.90;99.90
12421;DHT22;6275;43.688;1.408;2022-12-29T09:06:18;11.00;99.90
12421;DHT22;6275;43.688;1.408;2022-12-29T09:08:45;11.10;99.90
12421;DHT22;6275;43.688;1.408;2022-12-29T09:11:21;11.30;99.90
12421;DHT22;6275;43.688;1.408;2022-12-29T09:13:49;11.40;99.90
12421;DHT22;6275;43.688;1.408;2022-12-29T09:16:16;11.50;99.90
12421;DHT22;6275;43.688;1.408;2022-12-29T09:18:44;11.60;99.90
12421;DHT22;6275;43.688;1.408;2022-12-29T09:21:12;11.60;99.90
12421;DHT22;6275;43.688;1.408;2022-12-29T09:23:39;11.60;99.90
12421;DHT22;6275;43.688;1.408;2022-12-29T09:26:07;11.70;99.90
12421;DHT22;6275;43.688;1.408;2022-12-29T09:28:35;11.70;99.90
12421;DHT22;6275;43.688;1.408;2022-12-29T09:31:03;11.70;99.90
12421;DHT22;6275;43.688;1.408;2022-12-29T09:33:31;11.70;99.90
12421;DHT22;6275;43.688;1.408;2022-12-29T09:36:00;11.70;99.90
12421;DHT22;6275;43.688;1.408;2022-12-29T09:38:27;11.70;99.90
12421;DHT22;6275;43.688;1.408;2022-12-29T09:40:57;11.80;99.90
12421;DHT22;6275;43.688;1.408;2022-12-29T09:51:32;11.90;99.90
12421;DHT22;6275;43.688;1.408;2022-12-29T09:54:19;11.90;99.90
12421;DHT22;6275;43.688;1.408;2022-12-29T09:56:47;11.80;99.90
12421;DHT22;6275;43.688;1.408;2022-12-29T09:59:21;11.50;99.90
12421;DHT22;6275;43.688;1.408;2022-12-29T10:04:28;11.60;99.90
12421;DHT22;6275;43.688;1.408;2022-12-29T10:07:09;11.70;99.90
12421;DHT22;6275;43.688;1.408;2022-12-29T10:21:01;11.90;99.90
12421;DHT22;6275;43.688;1.408;2022-12-29T10:23:52;11.90;99.90
12421;DHT22;6275;43.688;1.408;2022-12-29T10:26:40;11.90;99.90
12421;DHT22;6275;43.688;1.408;2022-12-29T10:29:16;11.80;99.90
12421;DHT22;6275;43.688;1.408;2022-12-29T10:37:31;11.90;99.90
12421;DHT22;6275;43.688;1.408;2022-12-29T10:40:11;11.90;99.90
12421;DHT22;6275;43.688;1.408;2022-12-29T10:42:45;12.00;99.90
12421;DHT22;6275;43.688;1.408;2022-12-29T10:45:15;12.00;99.90
12421;DHT22;6275;43.688;1.408;2022-12-29T10:48:22;12.00;99.90
12421;DHT22;6275;43.688;1.408;2022-12-29T10:50:59;12.00;99.90
12421;DHT22;6275;43.688;1.408;2022-12-29T10:53:36;11.90;99.90
12421;DHT22;6275;43.688;1.408;2022-12-29T10:56:14;11.90;99.90
12421;DHT22;6275;43.688;1.408;2022-12-29T10:58:42;12.00;99.90
12421;DHT22;6275;43.688;1.408;2022-12-29T11:01:15;12.00;99.90
12421;DHT22;6275;43.688;1.408;2022-12-29T11:04:03;12.10;99.90
12421;DHT22;6275;43.688;1.408;2022-12-29T11:06:30;12.00;99.90
12421;DHT22;6275;43.688;1.408;2022-12-29T11:09:08;12.00;99.90
12421;DHT22;6275;43.688;1.408;2022-12-29T11:11:37;12.10;99.90
12421;DHT22;6275;43.688;1.408;2022-12-29T11:14:25;12.10;99.90
12421;DHT22;6275;43.688;1.408;2022-12-29T11:17:01;12.20;99.90
12421;DHT22;6275;43.688;1.408;2022-12-29T11:19:32;12.10;99.90
12421;DHT22;6275;43.688;1.408;2022-12-29T11:22:24;12.10;99.90
12421;DHT22;6275;43.688;1.408;2022-12-29T11:24:53;12.10;99.90
12421;DHT22;6275;43.688;1.408;2022-12-29T11:27:25;12.20;99.90
12421;DHT22;6275;43.688;1.408;2022-12-29T11:29:54;12.20;99.90
12421;DHT22;6275;43.688;1.408;2022-12-29T11:32:26;12.20;99.90
12421;DHT22;6275;43.688;1.408;2022-12-29T11:34:56;12.30;99.90
12421;DHT22;6275;43.688;1.408;2022-12-29T11:37:31;12.40;99.90
12421;DHT22;6275;43.688;1.408;2022-12-29T11:42:41;12.40;99.90
12421;DHT22;6275;43.688;1.408;2022-12-29T11:45:29;12.50;99.90
12421;DHT22;6275;43.688;1.408;2022-12-29T11:48:06;12.50;99.90
12421;DHT22;6275;43.688;1.408;2022-12-29T11:50:37;12.60;99.90
12421;DHT22;6275;43.688;1.408;2022-12-29T11:55:51;12.60;99.90
12421;DHT22;6275;43.688;1.408;2022-12-29T11:58:18;12.70;99.90
12421;DHT22;6275;43.688;1.408;2022-12-29T12:00:46;12.70;99.90
12421;DHT22;6275;43.688;1.408;2022-12-29T12:03:19;12.70;99.90
12421;DHT22;6275;43.688;1.408;2022-12-29T12:06:00;12.70;99.90
12421;DHT22;6275;43.688;1.408;2022-12-29T12:08:44;12.60;99.90
12421;DHT22;6275;43.688;1.408;2022-12-29T12:11:16;12.60;99.90
12421;DHT22;6275;43.688;1.408;2022-12-29T12:14:02;12.60;99.90
12421;DHT22;6275;43.688;1.408;2022-12-29T12:16:39;12.60;99.90
12421;DHT22;6275;43.688;1.408;2022-12-29T12:19:24;12.60;99.90
12421;DHT22;6275;43.688;1.408;2022-12-29T12:22:01;12.60;99.90
12421;DHT22;6275;43.688;1.408;2022-12-29T12:24:45;12.60;99.90
12421;DHT22;6275;43.688;1.408;2022-12-29T12:27:22;12.50;99.90
12421;DHT22;6275;43.688;1.408;2022-12-29T12:30:21;12.50;99.90
12421;DHT22;6275;43.688;1.408;2022-12-29T12:35:41;12.70;99.90
12421;DHT22;6275;43.688;1.408;2022-12-29T12:38:36;12.80;99.90
12421;DHT22;6275;43.688;1.408;2022-12-29T12:46:37;12.70;99.90
12421;DHT22;6275;43.688;1.408;2022-12-29T12:57:17;12.60;99.90
12421;DHT22;6275;43.688;1.408;2022-12-29T13:02:37;12.60;99.90
12421;DHT22;6275;43.688;1.408;2022-12-29T13:16:33;12.20;99.90
12421;DHT22;6275;43.688;1.408;2022-12-29T13:24:47;12.20;99.90
12421;DHT22;6275;43.688;1.408;2022-12-29T13:27:51;12.10;99.90
12421;DHT22;6275;43.688;1.408;2022-12-29T13:30:21;12.20;99.90
12421;DHT22;6275;43.688;1.408;2022-12-29T13:35:49;12.00;99.90
12421;DHT22;6275;43.688;1.408;2022-12-29T13:38:26;11.90;99.90
12421;DHT22;6275;43.688;1.408;2022-12-29T13:41:03;11.80;99.90
12421;DHT22;6275;43.688;1.408;2022-12-29T13:43:33;11.70;99.90
12421;DHT22;6275;43.688;1.408;2022-12-29T13:46:07;11.60;99.90
12421;DHT22;6275;43.688;1.408;2022-12-29T13:51:25;11.40;99.90
12421;DHT22;6275;43.688;1.408;2022-12-29T13:56:51;11.00;99.90
12421;DHT22;6275;43.688;1.408;2022-12-29T13:59:26;10.90;99.90
12421;DHT22;6275;43.688;1.408;2022-12-29T14:02:03;10.90;99.90
12421;DHT22;6275;43.688;1.408;2022-12-29T14:04:59;10.80;99.90
12421;DHT22;6275;43.688;1.408;2022-12-29T14:07:28;10.80;99.90
12421;DHT22;6275;43.688;1.408;2022-12-29T14:09:56;10.80;99.90
12421;DHT22;6275;43.688;1.408;2022-12-29T14:12:36;10.80;99.90
12421;DHT22;6275;43.688;1.408;2022-12-29T14:17:39;10.80;99.90
12421;DHT22;6275;43.688;1.408;2022-12-29T14:20:18;10.80;99.90
12421;DHT22;6275;43.688;1.408;2022-12-29T14:25:53;10.70;99.90
12421;DHT22;6275;43.688;1.408;2022-12-29T14:28:59;10.70;99.90
12421;DHT22;6275;43.688;1.408;2022-12-29T14:36:36;10.70;99.90
12421;DHT22;6275;43.688;1.408;2022-12-29T14:39:03;10.70;99.90
12421;DHT22;6275;43.688;1.408;2022-12-29T14:41:35;10.70;99.90
12421;DHT22;6275;43.688;1.408;2022-12-29T14:47:05;10.60;99.90
12421;DHT22;6275;43.688;1.408;2022-12-29T14:49:33;10.60;99.90
12421;DHT22;6275;43.688;1.408;2022-12-29T14:52:18;10.60;99.90
12421;DHT22;6275;43.688;1.408;2022-12-29T14:57:37;10.50;99.90
12421;DHT22;6275;43.688;1.408;2022-12-29T15:00:24;10.50;99.90
12421;DHT22;6275;43.688;1.408;2022-12-29T15:03:12;10.50;99.90
12421;DHT22;6275;43.688;1.408;2022-12-29T15:05:53;10.50;99.90
12421;DHT22;6275;43.688;1.408;2022-12-29T15:08:26;10.50;99.90
12421;DHT22;6275;43.688;1.408;2022-12-29T15:11:11;10.50;99.90
12421;DHT22;6275;43.688;1.408;2022-12-29T15:13:41;10.50;99.90
12421;DHT22;6275;43.688;1.408;2022-12-29T15:16:25;10.40;99.90
12421;DHT22;6275;43.688;1.408;2022-12-29T15:18:53;10.40;99.90
12421;DHT22;6275;43.688;1.408;2022-12-29T15:21:31;10.40;99.90
12421;DHT22;6275;43.688;1.408;2022-12-29T15:23:58;10.40;99.90
12421;DHT22;6275;43.688;1.408;2022-12-29T15:26:46;10.40;99.90
12421;DHT22;6275;43.688;1.408;2022-12-29T15:29:37;10.40;99.90
12421;DHT22;6275;43.688;1.408;2022-12-29T15:32:22;10.40;99.90
12421;DHT22;6275;43.688;1.408;2022-12-29T15:34:57;10.40;99.90
12421;DHT22;6275;43.688;1.408;2022-12-29T15:37:33;10.40;99.90
12421;DHT22;6275;43.688;1.408;2022-12-29T15:40:02;10.30;99.90
12421;DHT22;6275;43.688;1.408;2022-12-29T15:42:51;10.30;99.90
12421;DHT22;6275;43.688;1.408;2022-12-29T15:45:19;10.30;99.90
12421;DHT22;6275;43.688;1.408;2022-12-29T15:47:47;10.30;99.90
12421;DHT22;6275;43.688;1.408;2022-12-29T15:50:31;10.30;99.90
12421;DHT22;6275;43.688;1.408;2022-12-29T15:52:59;10.30;99.90
12421;DHT22;6275;43.688;1.408;2022-12-29T15:55:38;10.20;99.90
12421;DHT22;6275;43.688;1.408;2022-12-29T15:58:21;10.20;99.90
12421;DHT22;6275;43.688;1.408;2022-12-29T16:00:54;10.20;99.90
12421;DHT22;6275;43.688;1.408;2022-12-29T16:03:26;10.20;99.90
12421;DHT22;6275;43.688;1.408;2022-12-29T16:06:07;10.20;99.90
12421;DHT22;6275;43.688;1.408;2022-12-29T16:08:39;10.20;99.90
12421;DHT22;6275;43.688;1.408;2022-12-29T16:11:26;10.20;99.90
12421;DHT22;6275;43.688;1.408;2022-12-29T16:13:53;10.20;99.90
12421;DHT22;6275;43.688;1.408;2022-12-29T16:16:38;10.20;99.90
12421;DHT22;6275;43.688;1.408;2022-12-29T16:19:23;10.20;99.90
12421;DHT22;6275;43.688;1.408;2022-12-29T16:21:51;10.20;99.90
12421;DHT22;6275;43.688;1.408;2022-12-29T16:24:21;10.20;99.90
12421;DHT22;6275;43.688;1.408;2022-12-29T16:27:07;10.20;99.90
12421;DHT22;6275;43.688;1.408;2022-12-29T16:29:36;10.10;99.90
12421;DHT22;6275;43.688;1.408;2022-12-29T16:32:25;10.10;99.90
12421;DHT22;6275;43.688;1.408;2022-12-29T16:37:45;10.00;99.90
12421;DHT22;6275;43.688;1.408;2022-12-29T16:42:49;9.90;99.90
12421;DHT22;6275;43.688;1.408;2022-12-29T16:50:44;9.80;99.90
12421;DHT22;6275;43.688;1.408;2022-12-29T16:53:24;9.80;99.90
12421;DHT22;6275;43.688;1.408;2022-12-29T16:55:53;9.80;99.90
12421;DHT22;6275;43.688;1.408;2022-12-29T16:58:29;9.80;99.90
12421;DHT22;6275;43.688;1.408;2022-12-29T17:00:59;9.80;99.90
12421;DHT22;6275;43.688;1.408;2022-12-29T17:03:42;9.80;99.90
12421;DHT22;6275;43.688;1.408;2022-12-29T17:06:15;9.80;99.90
12421;DHT22;6275;43.688;1.408;2022-12-29T17:08:43;9.80;99.90
12421;DHT22;6275;43.688;1.408;2022-12-29T17:11:26;9.70;99.90
12421;DHT22;6275;43.688;1.408;2022-12-29T17:16:51;9.70;99.90
12421;DHT22;6275;43.688;1.408;2022-12-29T17:19:28;9.70;99.90
12421;DHT22;6275;43.688;1.408;2022-12-29T17:21:55;9.60;99.90
12421;DHT22;6275;43.688;1.408;2022-12-29T17:24:23;9.60;99.90
12421;DHT22;6275;43.688;1.408;2022-12-29T17:26:52;9.60;99.90
12421;DHT22;6275;43.688;1.408;2022-12-29T17:29:39;9.60;99.90
12421;DHT22;6275;43.688;1.408;2022-12-29T17:32:11;9.50;99.90
12421;DHT22;6275;43.688;1.408;2022-12-29T17:34:42;9.50;99.90
12421;DHT22;6275;43.688;1.408;2022-12-29T17:37:32;9.50;99.90
12421;DHT22;6275;43.688;1.408;2022-12-29T17:39:59;9.50;99.90
12421;DHT22;6275;43.688;1.408;2022-12-29T17:42:26;9.40;99.90
12421;DHT22;6275;43.688;1.408;2022-12-29T17:44:53;9.40;99.90
12421;DHT22;6275;43.688;1.408;2022-12-29T17:47:20;9.40;99.90
12421;DHT22;6275;43.688;1.408;2022-12-29T17:49:47;9.40;99.90
12421;DHT22;6275;43.688;1.408;2022-12-29T17:52:15;9.40;99.90
12421;DHT22;6275;43.688;1.408;2022-12-29T17:54:51;9.40;99.90
12421;DHT22;6275;43.688;1.408;2022-12-29T17:57:19;9.30;99.90
12421;DHT22;6275;43.688;1.408;2022-12-29T17:59:47;9.30;99.90
12421;DHT22;6275;43.688;1.408;2022-12-29T18:02:29;9.30;99.90
12421;DHT22;6275;43.688;1.408;2022-12-29T18:04:58;9.20;99.90
12421;DHT22;6275;43.688;1.408;2022-12-29T18:07:26;9.20;99.90
12421;DHT22;6275;43.688;1.408;2022-12-29T18:10:01;9.20;99.90
12421;DHT22;6275;43.688;1.408;2022-12-29T18:12:40;9.20;99.90
12421;DHT22;6275;43.688;1.408;2022-12-29T18:15:17;9.20;99.90
12421;DHT22;6275;43.688;1.408;2022-12-29T18:17:44;9.10;99.90
12421;DHT22;6275;43.688;1.408;2022-12-29T18:20:12;9.10;99.90
12421;DHT22;6275;43.688;1.408;2022-12-29T18:22:38;9.10;99.90
12421;DHT22;6275;43.688;1.408;2022-12-29T18:27:55;9.10;99.90
12421;DHT22;6275;43.688;1.408;2022-12-29T18:30:21;9.10;99.90
12421;DHT22;6275;43.688;1.408;2022-12-29T18:32:48;9.10;99.90
12421;DHT22;6275;43.688;1.408;2022-12-29T18:38:03;9.10;99.90
12421;DHT22;6275;43.688;1.408;2022-12-29T18:40:33;9.10;99.90
12421;DHT22;6275;43.688;1.408;2022-12-29T18:43:00;9.10;99.90
12421;DHT22;6275;43.688;1.408;2022-12-29T18:45:30;9.00;99.90
12421;DHT22;6275;43.688;1.408;2022-12-29T18:47:59;9.00;99.90
12421;DHT22;6275;43.688;1.408;2022-12-29T18:50:26;9.00;99.90
12421;DHT22;6275;43.688;1.408;2022-12-29T18:52:53;9.00;99.90
12421;DHT22;6275;43.688;1.408;2022-12-29T18:55:27;9.00;99.90
12421;DHT22;6275;43.688;1.408;2022-12-29T18:57:54;9.10;99.90
12421;DHT22;6275;43.688;1.408;2022-12-29T19:00:22;9.10;99.90
12421;DHT22;6275;43.688;1.408;2022-12-29T19:02:51;9.10;99.90
12421;DHT22;6275;43.688;1.408;2022-12-29T19:05:29;9.10;99.90
12421;DHT22;6275;43.688;1.408;2022-12-29T19:07:57;9.10;99.90
12421;DHT22;6275;43.688;1.408;2022-12-29T19:10:24;9.10;99.90
12421;DHT22;6275;43.688;1.408;2022-12-29T19:12:52;9.10;99.90
12421;DHT22;6275;43.688;1.408;2022-12-29T19:15:27;9.10;99.90